createdAt,value
2022-07-31T00:02:16.441Z,99.90
2022-07-31T00:07:19.101Z,99.90
2022-07-31T00:12:23.633Z,99.90
2022-07-31T00:17:26.290Z,99.90
2022-07-31T00:22:29.175Z,99.90
2022-07-31T00:27:41.481Z,99.90
2022-07-31T00:32:55.955Z,99.90
2022-07-31T00:38:26.358Z,99.90
2022-07-31T00:43:32.381Z,99.90
2022-07-31T00:48:38.621Z,99.90
2022-07-31T00:53:42.084Z,99.90
2022-07-31T00:58:53.155Z,99.90
2022-07-31T01:04:00.788Z,99.90
2022-07-31T01:09:04.858Z,99.90
2022-07-31T01:14:11.227Z,99.90
2022-07-31T01:19:42.396Z,99.90
2022-07-31T01:36:57.546Z,99.90
2022-07-31T01:42:43.139Z,99.90
2022-07-31T01:48:01.489Z,99.90
2022-07-31T01:53:15.064Z,99.90
2022-07-31T01:58:23.330Z,99.90
2022-07-31T02:03:42.726Z,99.90
2022-07-31T02:08:51.472Z,99.90
2022-07-31T02:13:58.701Z,99.90
2022-07-31T02:19:07.320Z,99.90
2022-07-31T02:24:16.996Z,99.90
2022-07-31T02:29:29.416Z,99.90
2022-07-31T02:34:37.526Z,99.90
2022-07-31T02:39:44.073Z,99.90
2022-07-31T02:44:48.043Z,99.90
2022-07-31T02:49:54.932Z,99.90
2022-07-31T02:55:01.611Z,99.90
2022-07-31T03:00:23.195Z,99.90
2022-07-31T03:05:29.068Z,99.90
2022-07-31T03:10:32.228Z,99.90
2022-07-31T03:15:36.151Z,99.90
2022-07-31T03:20:42.091Z,99.90
2022-07-31T03:25:45.569Z,99.90
2022-07-31T03:30:51.282Z,99.90
2022-07-31T03:35:59.803Z,99.90
2022-07-31T03:41:02.933Z,99.90
2022-07-31T03:46:07.124Z,99.90
2022-07-31T03:51:11.780Z,99.90
2022-07-31T03:56:15.290Z,99.90
2022-07-31T04:01:20.638Z,99.90
2022-07-31T04:06:24.999Z,99.90
2022-07-31T04:11:27.870Z,99.90
2022-07-31T04:16:30.748Z,99.90
2022-07-31T04:21:35.301Z,99.90
2022-07-31T04:26:38.312Z,99.90
2022-07-31T04:31:41.319Z,99.90
2022-07-31T04:36:45.726Z,99.90
2022-07-31T04:41:49.379Z,99.90
2022-07-31T04:46:57.774Z,99.90
2022-07-31T04:52:02.557Z,99.90
2022-07-31T04:57:07.670Z,99.90
2022-07-31T05:02:13.508Z,99.90
2022-07-31T05:07:19.372Z,99.90
2022-07-31T05:12:23.321Z,99.90
2022-07-31T05:17:27.649Z,99.90
2022-07-31T05:22:32.414Z,99.90
2022-07-31T05:27:36.154Z,99.90
2022-07-31T05:32:42.721Z,99.90
2022-07-31T05:37:47.358Z,99.90
2022-07-31T05:42:52.733Z,99.90
2022-07-31T05:47:58.205Z,99.90
2022-07-31T05:53:03.413Z,99.90
2022-07-31T05:58:06.615Z,99.90
2022-07-31T06:03:12.091Z,99.90
2022-07-31T06:08:18.224Z,99.90
2022-07-31T06:13:33.559Z,1.00
2022-07-31T06:18:36.900Z,1.00
2022-07-31T06:23:41.721Z,1.00
2022-07-31T06:28:49.277Z,1.00
2022-07-31T06:33:53.119Z,1.00
2022-07-31T06:38:57.604Z,1.00
2022-07-31T06:44:00.588Z,1.00
2022-07-31T06:49:08.582Z,1.00
2022-07-31T06:54:13.678Z,99.90
2022-07-31T06:59:40.077Z,99.90
2022-07-31T07:05:04.900Z,99.90
2022-07-31T07:10:05.918Z,23.60
2022-07-31T07:15:10.404Z,1.00
2022-07-31T07:20:14.603Z,1.00
2022-07-31T07:25:20.786Z,1.00
2022-07-31T07:30:23.907Z,1.00
2022-07-31T07:35:28.630Z,1.00
2022-07-31T07:40:35.150Z,99.90
2022-07-31T07:45:48.820Z,1.00
2022-07-31T07:50:53.369Z,1.00
2022-07-31T07:56:10.034Z,1.00
2022-07-31T08:01:18.688Z,1.00
2022-07-31T08:06:32.704Z,1.00
2022-07-31T08:11:49.057Z,1.00
2022-07-31T08:17:05.708Z,99.90
2022-07-31T08:22:17.898Z,1.00
2022-07-31T08:27:42.488Z,1.00
2022-07-31T08:33:09.426Z,1.00
2022-07-31T08:38:18.843Z,1.00
2022-07-31T08:44:01.536Z,1.00
2022-07-31T08:49:06.497Z,1.00
2022-07-31T08:54:18.168Z,1.00
2022-07-31T08:59:55.999Z,99.90
2022-07-31T09:05:09.961Z,99.90
2022-07-31T09:10:30.888Z,99.90
2022-07-31T09:15:55.093Z,1.00
2022-07-31T09:21:05.559Z,1.00
2022-07-31T09:26:16.126Z,1.00
2022-07-31T09:31:26.915Z,1.00
2022-07-31T09:36:30.220Z,1.00
2022-07-31T09:42:01.355Z,99.90
2022-07-31T09:46:58.922Z,99.90
2022-07-31T09:52:07.238Z,99.90
2022-07-31T09:57:14.607Z,99.90
2022-07-31T10:02:27.611Z,99.90
2022-07-31T10:07:40.035Z,99.90
2022-07-31T10:12:53.801Z,99.90
2022-07-31T10:18:02.464Z,99.90
2022-07-31T10:23:14.412Z,99.90
2022-07-31T10:28:24.191Z,99.90
2022-07-31T10:33:47.476Z,99.90
2022-07-31T10:39:18.410Z,99.90
2022-07-31T10:44:38.859Z,99.90
2022-07-31T10:49:56.980Z,99.90
2022-07-31T10:55:24.026Z,99.90
2022-07-31T11:00:36.499Z,99.90
2022-07-31T11:06:02.497Z,99.90
2022-07-31T11:11:22.474Z,99.90
2022-07-31T11:16:30.878Z,99.90
2022-07-31T11:22:32.019Z,99.90
2022-07-31T11:27:39.119Z,99.90
2022-07-31T11:32:54.455Z,99.90
2022-07-31T11:38:05.418Z,99.90
2022-07-31T11:43:27.451Z,99.90
2022-07-31T11:54:34.455Z,99.90
2022-07-31T11:59:49.724Z,99.90
2022-07-31T12:05:37.814Z,99.90
2022-07-31T12:11:02.929Z,99.90
2022-07-31T12:16:24.600Z,99.90
2022-07-31T12:21:52.504Z,99.90
2022-07-31T12:26:59.303Z,99.90
2022-07-31T12:32:02.577Z,99.90
2022-07-31T12:37:07.731Z,99.90
2022-07-31T12:42:22.076Z,99.90
2022-07-31T12:47:34.864Z,99.90
2022-07-31T12:52:37.591Z,99.90
2022-07-31T12:57:49.044Z,99.90
2022-07-31T13:02:54.686Z,99.90
2022-07-31T13:07:57.453Z,99.90
2022-07-31T13:13:01.670Z,99.90
2022-07-31T13:18:04.999Z,99.90
2022-07-31T13:23:07.692Z,99.90
2022-07-31T13:28:11.736Z,99.90
2022-07-31T13:33:14.394Z,99.90
2022-07-31T13:38:17.435Z,99.90
2022-07-31T13:43:21.433Z,99.90
2022-07-31T13:48:24.131Z,99.90
2022-07-31T13:53:26.803Z,99.90
2022-07-31T13:58:30.838Z,99.90
2022-07-31T14:03:34.317Z,99.90
2022-07-31T14:08:49.877Z,99.90
2022-07-31T14:13:54.710Z,99.90
2022-07-31T14:18:57.681Z,99.90
2022-07-31T14:24:00.448Z,99.90
2022-07-31T14:29:07.171Z,99.90
2022-07-31T14:34:10.013Z,99.90
2022-07-31T14:39:12.806Z,99.90
2022-07-31T14:44:21.091Z,99.90
2022-07-31T14:49:24.275Z,99.90
2022-07-31T14:54:27.110Z,99.90
2022-07-31T14:59:31.410Z,99.90
2022-07-31T15:04:34.373Z,99.90
2022-07-31T15:09:37.169Z,99.90
2022-07-31T15:14:41.399Z,99.90
2022-07-31T15:19:44.168Z,99.90
2022-07-31T15:24:49.454Z,99.90
2022-07-31T15:30:04.146Z,99.90
2022-07-31T15:35:10.539Z,99.90
2022-07-31T15:40:15.217Z,99.90
2022-07-31T15:45:21.134Z,99.90
2022-07-31T15:50:23.916Z,99.90
2022-07-31T15:55:26.764Z,99.90
2022-07-31T16:00:30.927Z,99.90
2022-07-31T16:05:36.142Z,99.90
2022-07-31T16:10:39.924Z,99.90
2022-07-31T16:15:43.956Z,99.90
2022-07-31T16:20:46.991Z,99.90
2022-07-31T16:25:49.704Z,99.90
2022-07-31T16:30:53.784Z,99.90
2022-07-31T16:35:57.144Z,99.90
2022-07-31T16:40:59.856Z,99.90
2022-07-31T16:46:03.862Z,99.90
2022-07-31T16:51:07.173Z,99.90
2022-07-31T16:56:09.983Z,99.90
2022-07-31T17:01:59.721Z,99.90
2022-07-31T17:06:38.141Z,99.90
2022-07-31T17:11:40.993Z,99.90
2022-07-31T17:16:48.120Z,99.90
2022-07-31T17:21:51.353Z,99.90
2022-07-31T17:26:54.050Z,99.90
2022-07-31T17:31:58.183Z,99.90
2022-07-31T17:37:00.859Z,99.90
2022-07-31T17:42:03.585Z,99.90
2022-07-31T17:47:08.735Z,99.90
2022-07-31T17:52:12.299Z,99.90
2022-07-31T17:57:15.738Z,99.90
2022-07-31T18:02:19.906Z,99.90
2022-07-31T18:07:24.163Z,99.90
2022-07-31T18:12:26.860Z,99.90
2022-07-31T18:17:31.701Z,99.90
2022-07-31T18:22:34.887Z,1.00
2022-07-31T18:27:52.406Z,1.00
2022-07-31T18:32:58.679Z,1.00
2022-07-31T18:38:13.728Z,1.00
2022-07-31T18:43:16.511Z,1.00
2022-07-31T18:48:21.169Z,1.00
2022-07-31T18:53:25.062Z,1.00
2022-07-31T18:58:28.110Z,1.00
2022-07-31T19:03:32.349Z,1.00
2022-07-31T19:08:35.069Z,1.00
2022-07-31T19:13:37.810Z,1.00
2022-07-31T19:18:41.851Z,1.00
2022-07-31T19:23:46.730Z,1.00
2022-07-31T19:28:49.749Z,1.00
2022-07-31T19:33:53.986Z,1.00
2022-07-31T19:38:56.830Z,1.00
2022-07-31T19:43:59.565Z,1.00
2022-07-31T19:49:03.730Z,1.00
2022-07-31T19:54:06.944Z,1.00
2022-07-31T19:59:10.215Z,1.00
2022-07-31T20:04:17.728Z,1.00
2022-07-31T20:09:21.866Z,1.00
2022-07-31T20:14:29.146Z,1.00
2022-07-31T20:19:33.673Z,1.00
2022-07-31T20:24:37.059Z,1.00
2022-07-31T20:29:39.808Z,12.10
2022-07-31T20:34:43.954Z,99.90
2022-07-31T20:39:46.831Z,99.90
2022-07-31T20:44:49.582Z,99.90
2022-07-31T20:49:53.633Z,1.00
2022-07-31T20:54:56.391Z,1.00
2022-07-31T20:59:59.196Z,1.00
2022-07-31T21:05:03.367Z,1.00
2022-07-31T21:10:07.275Z,18.40
2022-07-31T21:15:27.179Z,12.70
2022-07-31T21:20:49.714Z,99.90
2022-07-31T21:25:57.138Z,99.90
2022-07-31T21:31:00.505Z,99.90
2022-07-31T21:36:05.897Z,99.90
2022-07-31T21:41:09.373Z,99.90
2022-07-31T21:46:16.124Z,1.00
2022-07-31T21:51:22.327Z,99.90
2022-07-31T21:56:25.122Z,99.90
2022-07-31T22:01:27.956Z,1.00
2022-07-31T22:06:51.350Z,1.00
2022-07-31T22:12:01.869Z,1.00
2022-07-31T22:17:04.796Z,60.50
2022-07-31T22:22:10.286Z,31.20
2022-07-31T22:27:31.867Z,99.90
2022-07-31T22:32:35.818Z,1.00
2022-07-31T22:37:40.718Z,1.00
2022-07-31T22:42:43.746Z,1.00
2022-07-31T22:47:59.720Z,1.00
2022-07-31T22:53:03.817Z,99.90
2022-07-31T22:58:10.356Z,1.00
2022-07-31T23:03:13.194Z,1.00
2022-07-31T23:08:17.196Z,1.00
2022-07-31T23:13:19.879Z,99.90
2022-07-31T23:18:22.544Z,1.00
2022-07-31T23:23:26.599Z,1.00
2022-07-31T23:28:29.563Z,1.00
2022-07-31T23:33:32.354Z,1.00
2022-07-31T23:38:36.478Z,99.90
2022-07-31T23:43:39.408Z,1.00
2022-07-31T23:48:42.084Z,1.00
2022-07-31T23:53:47.365Z,99.90
2022-07-31T23:58:50.089Z,1.00
